createdAt,value
2022-10-30T00:01:20.092Z,99.90
2022-10-30T00:04:21.285Z,99.90
2022-10-30T00:07:22.019Z,99.90
2022-10-30T00:10:23.259Z,99.90
2022-10-30T00:13:24.239Z,99.90
2022-10-30T00:16:25.289Z,99.90
2022-10-30T00:19:26.309Z,99.90
2022-10-30T00:22:27.283Z,99.90
2022-10-30T00:25:28.041Z,99.90
2022-10-30T00:28:29.268Z,99.90
2022-10-30T00:31:31.326Z,99.90
2022-10-30T00:34:32.317Z,99.90
2022-10-30T00:37:33.164Z,99.90
2022-10-30T00:40:33.923Z,99.90
2022-10-30T00:43:40.437Z,99.90
2022-10-30T00:46:43.130Z,99.90
2022-10-30T00:50:08.726Z,99.90
2022-10-30T00:53:17.679Z,99.90
2022-10-30T00:56:22.343Z,99.90
2022-10-30T00:59:33.068Z,99.90
2022-10-30T01:02:34.902Z,99.90
2022-10-30T01:05:36.793Z,99.90
2022-10-30T01:08:39.195Z,99.90
2022-10-30T01:11:40.524Z,99.90
2022-10-30T01:14:49.361Z,99.90
2022-10-30T01:18:25.277Z,99.90
2022-10-30T01:21:28.983Z,99.90
2022-10-30T01:25:12.172Z,99.90
2022-10-30T01:28:28.552Z,99.90
2022-10-30T01:32:04.510Z,99.90
2022-10-30T01:35:22.269Z,99.90
2022-10-30T01:38:48.164Z,99.90
2022-10-30T01:41:49.107Z,99.90
2022-10-30T01:44:50.155Z,99.90
2022-10-30T01:48:23.805Z,99.90
2022-10-30T01:51:34.716Z,99.90
2022-10-30T01:55:00.585Z,99.90
2022-10-30T01:58:27.724Z,99.90
2022-10-30T02:01:35.788Z,99.90
2022-10-30T02:04:38.274Z,99.90
2022-10-30T02:07:39.427Z,99.90
2022-10-30T02:10:46.562Z,99.90
2022-10-30T02:13:48.691Z,99.90
2022-10-30T02:16:53.192Z,99.90
2022-10-30T02:19:54.674Z,99.90
2022-10-30T02:22:59.308Z,99.90
2022-10-30T02:26:05.677Z,99.90
2022-10-30T02:29:06.318Z,99.90
2022-10-30T02:32:08.308Z,99.90
2022-10-30T02:35:09.947Z,99.90
2022-10-30T02:38:10.988Z,99.90
2022-10-30T02:41:12.784Z,99.90
2022-10-30T02:44:14.092Z,99.90
2022-10-30T02:47:15.341Z,99.90
2022-10-30T02:50:16.436Z,99.90
2022-10-30T02:53:17.565Z,99.90
2022-10-30T02:56:19.633Z,99.90
2022-10-30T02:59:20.814Z,99.90
2022-10-30T03:02:23.731Z,99.90
2022-10-30T03:05:25.968Z,99.90
2022-10-30T03:08:26.777Z,99.90
2022-10-30T03:11:27.856Z,99.90
2022-10-30T03:14:29.723Z,99.90
2022-10-30T03:17:30.718Z,99.90
2022-10-30T03:20:31.843Z,99.90
2022-10-30T03:23:33.931Z,99.90
2022-10-30T03:26:36.029Z,99.90
2022-10-30T03:29:39.823Z,99.90
2022-10-30T03:32:40.522Z,99.90
2022-10-30T03:35:43.738Z,99.90
2022-10-30T03:38:44.883Z,99.90
2022-10-30T03:41:49.620Z,99.90
2022-10-30T03:44:51.895Z,99.90
2022-10-30T03:47:53.408Z,99.90
2022-10-30T03:50:57.244Z,99.90
2022-10-30T03:53:58.147Z,99.90
2022-10-30T03:57:00.071Z,99.90
2022-10-30T04:00:07.037Z,99.90
2022-10-30T04:03:23.359Z,99.90
2022-10-30T04:06:24.319Z,99.90
2022-10-30T04:09:25.551Z,99.90
2022-10-30T04:12:27.338Z,99.90
2022-10-30T04:15:28.833Z,99.90
2022-10-30T04:18:29.620Z,99.90
2022-10-30T04:21:31.520Z,99.90
2022-10-30T04:24:32.519Z,99.90
2022-10-30T04:27:41.598Z,99.90
2022-10-30T04:30:42.551Z,99.90
2022-10-30T04:33:43.775Z,99.90
2022-10-30T04:36:44.550Z,99.90
2022-10-30T04:39:48.803Z,99.90
2022-10-30T04:42:55.714Z,99.90
2022-10-30T04:45:56.700Z,99.90
2022-10-30T04:48:57.492Z,99.90
2022-10-30T04:51:58.788Z,99.90
2022-10-30T04:54:59.330Z,99.90
2022-10-30T04:58:03.162Z,99.90
2022-10-30T05:01:08.147Z,99.90
2022-10-30T05:04:10.146Z,99.90
2022-10-30T05:07:13.586Z,99.90
2022-10-30T05:10:15.831Z,99.90
2022-10-30T05:13:16.912Z,99.90
2022-10-30T05:16:17.669Z,99.90
2022-10-30T05:19:18.492Z,99.90
2022-10-30T05:22:25.899Z,99.90
2022-10-30T05:25:28.432Z,99.90
2022-10-30T05:28:32.064Z,99.90
2022-10-30T05:31:33.458Z,99.90
2022-10-30T05:34:36.885Z,99.90
2022-10-30T05:37:38.023Z,99.90
2022-10-30T05:40:39.943Z,99.90
2022-10-30T05:43:41.479Z,99.90
2022-10-30T05:46:42.855Z,99.90
2022-10-30T05:49:57.896Z,99.90
2022-10-30T05:53:04.088Z,99.90
2022-10-30T05:56:05.456Z,99.90
2022-10-30T05:59:08.839Z,99.90
2022-10-30T06:02:09.732Z,99.90
2022-10-30T06:05:10.937Z,99.90
2022-10-30T06:08:12.782Z,99.90
2022-10-30T06:11:13.953Z,99.90
2022-10-30T06:14:17.968Z,99.90
2022-10-30T06:17:22.801Z,99.90
2022-10-30T06:20:35.178Z,99.90
2022-10-30T06:23:59.284Z,99.90
2022-10-30T06:27:07.481Z,99.90
2022-10-30T06:30:08.998Z,99.90
2022-10-30T06:33:10.788Z,99.90
2022-10-30T06:36:15.061Z,99.90
2022-10-30T06:39:16.399Z,99.90
2022-10-30T06:42:30.174Z,99.90
2022-10-30T06:45:43.017Z,99.90
2022-10-30T06:48:44.247Z,99.90
2022-10-30T06:51:46.281Z,99.90
2022-10-30T06:54:47.682Z,99.90
2022-10-30T06:58:06.743Z,99.90
2022-10-30T07:01:25.952Z,99.90
2022-10-30T07:04:47.626Z,99.90
2022-10-30T07:07:48.377Z,99.90
2022-10-30T07:10:49.499Z,99.90
2022-10-30T07:14:01.960Z,99.90
2022-10-30T07:17:22.182Z,99.90
2022-10-30T07:20:32.611Z,99.90
2022-10-30T07:23:33.721Z,99.90
2022-10-30T07:26:53.257Z,99.90
2022-10-30T07:30:09.614Z,99.90
2022-10-30T07:33:35.187Z,99.90
2022-10-30T07:36:49.116Z,99.90
2022-10-30T07:40:15.876Z,99.90
2022-10-30T07:43:22.490Z,99.90
2022-10-30T07:46:55.237Z,99.90
2022-10-30T07:50:19.477Z,99.90
2022-10-30T07:53:20.248Z,99.90
2022-10-30T07:56:22.390Z,99.90
2022-10-30T07:59:26.184Z,99.90
2022-10-30T08:02:33.373Z,99.90
2022-10-30T08:05:57.032Z,99.90
2022-10-30T08:09:18.085Z,99.90
2022-10-30T08:12:21.131Z,99.90
2022-10-30T08:15:22.603Z,99.90
2022-10-30T08:18:23.312Z,99.90
2022-10-30T08:21:24.609Z,99.90
2022-10-30T08:24:33.997Z,99.90
2022-10-30T08:27:35.306Z,99.90
2022-10-30T08:30:39.207Z,99.90
2022-10-30T08:33:42.825Z,99.90
2022-10-30T08:37:01.459Z,99.90
2022-10-30T08:40:03.283Z,99.90
2022-10-30T08:43:16.698Z,99.90
2022-10-30T08:46:18.143Z,99.90
2022-10-30T08:49:19.304Z,99.90
2022-10-30T08:52:26.970Z,99.90
2022-10-30T08:55:31.980Z,99.90
2022-10-30T08:58:35.598Z,99.90
2022-10-30T09:01:37.108Z,99.90
2022-10-30T09:04:53.529Z,99.90
2022-10-30T09:08:13.314Z,99.90
2022-10-30T09:11:36.324Z,99.90
2022-10-30T09:14:37.954Z,99.90
2022-10-30T09:17:42.258Z,99.90
2022-10-30T09:20:43.339Z,99.90
2022-10-30T09:23:44.655Z,99.90
2022-10-30T09:27:04.081Z,99.90
2022-10-30T09:30:11.511Z,99.90
2022-10-30T09:33:17.314Z,99.90
2022-10-30T09:36:38.702Z,99.90
2022-10-30T09:39:40.126Z,99.30
2022-10-30T09:42:51.019Z,95.70
2022-10-30T09:46:31.483Z,89.10
2022-10-30T09:49:43.890Z,91.20
2022-10-30T09:53:33.931Z,93.10
2022-10-30T09:57:15.064Z,89.70
2022-10-30T10:00:22.817Z,87.50
2022-10-30T10:03:58.755Z,90.20
2022-10-30T10:07:59.612Z,87.10
2022-10-30T10:11:32.548Z,84.90
2022-10-30T10:14:41.524Z,84.60
2022-10-30T10:17:46.923Z,89.40
2022-10-30T10:20:56.211Z,89.70
2022-10-30T10:24:02.759Z,87.20
2022-10-30T10:27:22.129Z,95.20
2022-10-30T10:30:26.009Z,99.90
2022-10-30T10:33:45.415Z,99.90
2022-10-30T10:37:11.750Z,98.20
2022-10-30T10:40:54.529Z,93.20
2022-10-30T10:44:31.323Z,97.50
2022-10-30T10:47:48.284Z,93.20
2022-10-30T10:50:58.632Z,89.40
2022-10-30T10:54:10.867Z,89.80
2022-10-30T10:57:26.759Z,90.90
2022-10-30T11:00:30.454Z,90.00
2022-10-30T11:04:16.979Z,90.10
2022-10-30T11:07:30.580Z,93.50
2022-10-30T11:10:31.715Z,95.10
2022-10-30T11:13:38.841Z,93.90
2022-10-30T11:17:01.481Z,88.10
2022-10-30T11:20:19.563Z,89.60
2022-10-30T11:23:41.395Z,86.40
2022-10-30T11:26:42.814Z,89.90
2022-10-30T11:29:54.001Z,92.40
2022-10-30T11:32:57.165Z,94.30
2022-10-30T11:36:15.441Z,94.30
2022-10-30T11:39:30.166Z,93.60
2022-10-30T11:42:31.518Z,92.30
2022-10-30T11:45:43.713Z,95.90
2022-10-30T11:48:46.406Z,93.40
2022-10-30T11:51:47.979Z,98.50
2022-10-30T11:54:54.885Z,99.90
2022-10-30T11:57:59.711Z,99.90
2022-10-30T12:01:08.072Z,99.90
2022-10-30T12:04:27.632Z,99.90
2022-10-30T12:07:33.627Z,99.90
2022-10-30T12:10:45.741Z,99.90
2022-10-30T12:13:46.555Z,99.90
2022-10-30T12:16:52.028Z,99.90
2022-10-30T12:19:57.526Z,99.90
2022-10-30T12:22:59.457Z,99.90
2022-10-30T12:26:10.299Z,99.90
2022-10-30T12:29:18.579Z,99.90
2022-10-30T12:32:23.704Z,99.90
2022-10-30T12:35:44.540Z,99.90
2022-10-30T12:38:55.521Z,99.90
2022-10-30T12:42:04.092Z,99.90
2022-10-30T12:45:24.862Z,99.90
2022-10-30T12:48:40.501Z,99.90
2022-10-30T12:52:03.761Z,99.90
2022-10-30T12:55:31.098Z,99.90
2022-10-30T12:58:59.364Z,99.90
2022-10-30T13:02:18.509Z,99.90
2022-10-30T13:09:26.497Z,99.90
2022-10-30T13:12:36.375Z,99.90
2022-10-30T13:15:54.289Z,99.90
2022-10-30T13:19:01.535Z,99.90
2022-10-30T13:22:18.730Z,99.90
2022-10-30T13:25:55.743Z,99.90
2022-10-30T13:29:12.899Z,99.90
2022-10-30T13:32:19.839Z,99.90
2022-10-30T13:35:35.949Z,99.90
2022-10-30T13:38:57.743Z,99.90
2022-10-30T13:42:38.503Z,99.90
2022-10-30T13:46:03.522Z,99.90
2022-10-30T13:49:40.659Z,99.90
2022-10-30T13:52:46.902Z,99.90
2022-10-30T13:55:50.225Z,99.90
2022-10-30T13:59:13.043Z,99.90
2022-10-30T14:02:40.239Z,99.90
2022-10-30T14:06:24.431Z,99.90
2022-10-30T14:09:51.906Z,99.90
2022-10-30T14:12:56.188Z,99.90
2022-10-30T14:16:07.585Z,99.90
2022-10-30T14:19:16.239Z,99.90
2022-10-30T14:22:26.323Z,99.90
2022-10-30T14:25:27.014Z,99.90
2022-10-30T14:28:28.749Z,99.90
2022-10-30T14:31:36.640Z,99.90
2022-10-30T14:34:58.843Z,99.90
2022-10-30T14:38:22.853Z,99.90
2022-10-30T14:41:46.216Z,99.90
2022-10-30T14:44:58.953Z,99.90
2022-10-30T14:48:55.334Z,99.90
2022-10-30T14:52:48.733Z,99.90
2022-10-30T14:55:52.494Z,99.90
2022-10-30T14:59:13.888Z,99.90
2022-10-30T15:02:15.162Z,99.90
2022-10-30T15:06:16.397Z,99.90
2022-10-30T15:09:34.501Z,99.90
2022-10-30T15:13:10.873Z,99.90
2022-10-30T15:16:19.744Z,99.90
2022-10-30T15:19:24.994Z,99.90
2022-10-30T15:22:30.266Z,99.90
2022-10-30T15:25:47.641Z,99.90
2022-10-30T15:28:52.398Z,99.90
2022-10-30T15:32:14.639Z,99.90
2022-10-30T15:35:28.196Z,99.90
2022-10-30T15:38:29.214Z,99.90
2022-10-30T15:41:31.288Z,99.90
2022-10-30T15:44:40.295Z,99.90
2022-10-30T15:47:57.595Z,99.90
2022-10-30T15:51:15.079Z,99.90
2022-10-30T15:54:21.407Z,99.90
2022-10-30T15:58:03.002Z,99.90
2022-10-30T16:01:00.216Z,99.90
2022-10-30T16:04:01.628Z,99.90
2022-10-30T16:07:18.111Z,99.90
2022-10-30T16:10:19.093Z,99.90
2022-10-30T16:13:30.595Z,99.90
2022-10-30T16:16:32.308Z,99.90
2022-10-30T16:19:54.518Z,99.90
2022-10-30T16:22:55.628Z,99.90
2022-10-30T16:25:59.272Z,99.90
2022-10-30T16:29:18.501Z,99.90
2022-10-30T16:32:24.130Z,99.90
2022-10-30T16:35:27.480Z,99.90
2022-10-30T16:38:37.041Z,99.90
2022-10-30T16:41:39.972Z,99.90
2022-10-30T16:44:42.169Z,99.90
2022-10-30T16:47:51.686Z,99.90
2022-10-30T16:50:53.059Z,99.90
2022-10-30T16:53:54.255Z,99.90
2022-10-30T16:57:00.052Z,99.90
2022-10-30T17:00:02.211Z,99.90
2022-10-30T17:03:10.769Z,99.90
2022-10-30T17:06:35.833Z,99.90
2022-10-30T17:09:38.770Z,99.90
2022-10-30T17:12:39.543Z,99.90
2022-10-30T17:15:41.804Z,99.90
2022-10-30T17:18:43.295Z,99.90
2022-10-30T17:21:44.531Z,99.90
2022-10-30T17:24:47.698Z,99.90
2022-10-30T17:27:51.155Z,99.90
2022-10-30T17:30:51.932Z,99.90
2022-10-30T17:34:17.431Z,99.90
2022-10-30T17:37:18.386Z,99.90
2022-10-30T17:40:20.465Z,99.90
2022-10-30T17:43:26.235Z,99.90
2022-10-30T17:46:27.577Z,99.90
2022-10-30T17:49:32.065Z,99.90
2022-10-30T17:52:34.345Z,99.90
2022-10-30T17:55:38.682Z,99.90
2022-10-30T17:58:39.791Z,99.90
2022-10-30T18:01:41.332Z,99.90
2022-10-30T18:04:43.000Z,99.90
2022-10-30T18:07:44.676Z,99.90
2022-10-30T18:10:45.649Z,99.90
2022-10-30T18:13:47.796Z,99.90
2022-10-30T18:16:54.508Z,99.90
2022-10-30T18:19:56.470Z,99.90
2022-10-30T18:22:58.350Z,99.90
2022-10-30T18:25:59.726Z,99.90
2022-10-30T18:29:00.972Z,99.90
2022-10-30T18:32:06.929Z,99.90
2022-10-30T18:35:26.216Z,99.90
2022-10-30T18:38:26.959Z,99.90
2022-10-30T18:41:42.367Z,99.90
2022-10-30T18:44:43.168Z,99.90
2022-10-30T18:47:43.879Z,99.90
2022-10-30T18:50:44.669Z,99.90
2022-10-30T18:53:52.101Z,99.90
2022-10-30T18:56:53.291Z,99.90
2022-10-30T18:59:53.941Z,99.90
2022-10-30T19:03:00.146Z,99.90
2022-10-30T19:06:01.382Z,99.90
2022-10-30T19:09:02.323Z,99.90
2022-10-30T19:12:03.599Z,99.90
2022-10-30T19:15:20.944Z,99.90
2022-10-30T19:18:25.491Z,99.90
2022-10-30T19:21:26.730Z,99.90
2022-10-30T19:24:27.832Z,99.90
2022-10-30T19:27:28.613Z,99.90
2022-10-30T19:30:29.651Z,99.90
2022-10-30T19:33:30.551Z,99.90
2022-10-30T19:36:36.416Z,99.90
2022-10-30T19:39:38.334Z,99.90
2022-10-30T19:42:39.506Z,99.90
2022-10-30T19:45:40.723Z,99.90
2022-10-30T19:48:56.548Z,99.90
2022-10-30T19:51:58.645Z,99.90
2022-10-30T19:54:59.329Z,99.90
2022-10-30T19:58:01.869Z,99.90
2022-10-30T20:01:03.483Z,99.90
2022-10-30T20:04:04.587Z,99.90
2022-10-30T20:07:05.303Z,99.90
2022-10-30T20:10:16.236Z,99.90
2022-10-30T20:13:17.123Z,99.90
2022-10-30T20:16:17.998Z,99.90
2022-10-30T20:19:37.042Z,99.90
2022-10-30T20:22:37.846Z,99.90
2022-10-30T20:25:38.565Z,99.90
2022-10-30T20:28:42.698Z,99.90
2022-10-30T20:31:43.578Z,99.90
2022-10-30T20:34:44.189Z,99.90
2022-10-30T20:38:02.141Z,99.90
2022-10-30T20:41:05.198Z,99.90
2022-10-30T20:44:06.722Z,99.90
2022-10-30T20:47:08.061Z,99.90
2022-10-30T20:50:09.943Z,99.90
2022-10-30T20:53:13.646Z,99.90
2022-10-30T20:56:14.655Z,99.90
2022-10-30T20:59:15.492Z,99.90
2022-10-30T21:02:16.331Z,99.90
2022-10-30T21:05:42.114Z,99.90
2022-10-30T21:08:38.474Z,99.90
2022-10-30T21:11:39.183Z,99.90
2022-10-30T21:14:39.835Z,99.90
2022-10-30T21:17:40.538Z,99.90
2022-10-30T21:20:41.389Z,99.90
2022-10-30T21:23:41.976Z,99.90
2022-10-30T21:26:42.733Z,99.90
2022-10-30T21:29:46.362Z,99.90
2022-10-30T21:32:46.950Z,99.90
2022-10-30T21:35:47.917Z,99.90
2022-10-30T21:38:49.298Z,99.90
2022-10-30T21:41:50.295Z,99.90
2022-10-30T21:44:51.121Z,99.90
2022-10-30T21:47:52.776Z,99.90
2022-10-30T21:50:53.714Z,99.90
2022-10-30T21:53:56.177Z,99.90
2022-10-30T21:56:57.959Z,99.90
2022-10-30T22:00:01.752Z,99.90
2022-10-30T22:03:11.237Z,99.90
2022-10-30T22:06:15.328Z,99.90
2022-10-30T22:09:18.815Z,99.90
2022-10-30T22:12:19.650Z,99.90
2022-10-30T22:15:20.556Z,99.90
2022-10-30T22:18:22.108Z,99.90
2022-10-30T22:21:22.893Z,99.90
2022-10-30T22:24:23.631Z,99.90
2022-10-30T22:27:24.583Z,99.90
2022-10-30T22:30:25.455Z,99.90
2022-10-30T22:33:26.196Z,99.90
2022-10-30T22:36:31.206Z,99.90
2022-10-30T22:39:32.189Z,99.90
2022-10-30T22:42:36.029Z,99.90
2022-10-30T22:45:37.107Z,99.90
2022-10-30T22:48:39.210Z,99.90
2022-10-30T22:51:40.424Z,99.90
2022-10-30T22:54:41.419Z,99.90
2022-10-30T22:57:42.004Z,99.90
2022-10-30T23:00:42.833Z,99.90
2022-10-30T23:03:44.991Z,99.90
2022-10-30T23:06:45.999Z,99.90
2022-10-30T23:09:46.819Z,99.90
2022-10-30T23:12:47.611Z,99.90
2022-10-30T23:15:48.875Z,99.90
2022-10-30T23:18:50.959Z,99.90
2022-10-30T23:21:58.881Z,99.90
2022-10-30T23:24:59.850Z,99.90
2022-10-30T23:28:01.494Z,99.90
2022-10-30T23:31:15.892Z,99.90
2022-10-30T23:34:17.771Z,99.90
2022-10-30T23:37:18.721Z,99.90
2022-10-30T23:40:20.987Z,99.90
2022-10-30T23:43:22.361Z,99.90
2022-10-30T23:46:23.636Z,99.90
2022-10-30T23:49:24.379Z,99.90
2022-10-30T23:52:25.125Z,99.90
2022-10-30T23:55:27.490Z,99.90
2022-10-30T23:58:28.457Z,99.90
